createdAt,value
2017-07-02T00:01:56.898Z,0
2017-07-02T00:04:20.689Z,0
2017-07-02T00:06:44.517Z,0
2017-07-02T00:09:08.301Z,0
2017-07-02T00:11:23.697Z,0
2017-07-02T00:13:47.513Z,0
2017-07-02T00:18:21.177Z,0
2017-07-02T00:20:45.005Z,0
2017-07-02T00:23:08.797Z,0
2017-07-02T00:25:32.552Z,0
2017-07-02T00:27:56.478Z,0
2017-07-02T00:30:21.291Z,0
2017-07-02T00:32:45.089Z,0
2017-07-02T00:35:08.889Z,0
2017-07-02T00:37:32.714Z,0
2017-07-02T00:39:56.458Z,0
2017-07-02T00:42:11.837Z,0
2017-07-02T00:44:18.794Z,0
2017-07-02T00:46:34.204Z,0
2017-07-02T00:48:58.014Z,0
2017-07-02T00:53:14.773Z,0
2017-07-02T00:55:21.761Z,0
2017-07-02T00:57:45.575Z,0
2017-07-02T01:00:09.389Z,0
2017-07-02T01:02:33.199Z,0
2017-07-02T01:06:32.815Z,0
2017-07-02T01:08:56.657Z,0
2017-07-02T01:11:20.488Z,0
2017-07-02T01:13:27.451Z,0
2017-07-02T01:15:42.875Z,0
2017-07-02T01:18:06.713Z,0
2017-07-02T01:20:30.515Z,0
2017-07-02T01:24:55.762Z,0
2017-07-02T01:27:19.609Z,0
2017-07-02T01:31:44.797Z,0
2017-07-02T01:34:08.627Z,0
2017-07-02T01:36:32.437Z,0
2017-07-02T01:38:56.248Z,0
2017-07-02T01:41:11.650Z,0
2017-07-02T01:43:27.052Z,0
2017-07-02T01:45:50.875Z,0
2017-07-02T01:48:06.255Z,0
2017-07-02T01:50:30.106Z,0
2017-07-02T01:52:53.938Z,0
2017-07-02T01:55:17.784Z,0
2017-07-02T01:59:17.426Z,0
2017-07-02T02:01:41.238Z,0
2017-07-02T02:04:05.105Z,0
2017-07-02T02:06:28.977Z,0
2017-07-02T02:08:52.837Z,0
2017-07-02T02:11:08.263Z,0
2017-07-02T02:13:32.065Z,0
2017-07-02T02:15:55.955Z,0
2017-07-02T02:18:19.869Z,0
2017-07-02T02:20:43.695Z,0
2017-07-02T02:23:07.563Z,0
2017-07-02T02:25:31.497Z,0
2017-07-02T02:27:55.298Z,0
2017-07-02T02:30:19.234Z,0
2017-07-02T02:32:43.085Z,0
2017-07-02T02:35:06.939Z,0
2017-07-02T02:37:13.908Z,0
2017-07-02T02:39:37.763Z,0
2017-07-02T02:42:01.619Z,0
2017-07-02T02:44:17.042Z,0
2017-07-02T02:46:40.900Z,0
2017-07-02T02:49:04.756Z,0
2017-07-02T02:51:28.558Z,0
2017-07-02T02:53:52.394Z,0
2017-07-02T02:56:16.234Z,0
2017-07-02T02:58:40.094Z,0
2017-07-02T03:01:03.942Z,0
2017-07-02T03:03:27.835Z,0
2017-07-02T03:05:43.262Z,0
2017-07-02T03:08:07.112Z,0
2017-07-02T03:10:30.962Z,0
2017-07-02T03:12:54.835Z,0
2017-07-02T03:15:18.693Z,0
2017-07-02T03:17:42.563Z,0
2017-07-02T03:20:06.443Z,0
2017-07-02T03:22:30.311Z,0
2017-07-02T03:24:45.772Z,0
2017-07-02T03:27:09.627Z,0
2017-07-02T03:29:33.431Z,0
2017-07-02T03:31:57.272Z,0
2017-07-02T03:34:21.075Z,0
2017-07-02T03:36:36.496Z,0
2017-07-02T03:39:00.335Z,0
2017-07-02T03:41:24.150Z,0
2017-07-02T03:43:47.941Z,0
2017-07-02T03:46:11.745Z,0
2017-07-02T03:48:35.590Z,0
2017-07-02T03:50:50.960Z,0
2017-07-02T03:53:14.790Z,0
2017-07-02T03:55:30.213Z,0
2017-07-02T03:57:54.045Z,0
2017-07-02T04:00:17.886Z,5
2017-07-02T04:02:41.733Z,0
2017-07-02T04:05:05.555Z,0
2017-07-02T04:07:29.400Z,5
2017-07-02T04:11:54.586Z,5
2017-07-02T04:14:18.444Z,5
2017-07-02T04:16:42.278Z,5
2017-07-02T04:18:57.685Z,10
2017-07-02T04:21:21.536Z,10
2017-07-02T04:23:36.912Z,10
2017-07-02T04:25:52.350Z,10
2017-07-02T04:28:16.223Z,10
2017-07-02T04:30:40.088Z,10
2017-07-02T04:33:03.937Z,10
2017-07-02T04:35:27.800Z,10
2017-07-02T04:37:43.247Z,15
2017-07-02T04:39:58.679Z,15
2017-07-02T04:42:22.546Z,20
2017-07-02T04:44:37.966Z,20
2017-07-02T04:47:01.774Z,20
2017-07-02T04:49:25.692Z,20
2017-07-02T04:51:41.147Z,25
2017-07-02T04:54:05.007Z,20
2017-07-02T04:56:28.889Z,20
2017-07-02T04:58:52.746Z,20
2017-07-02T05:01:16.623Z,20
2017-07-02T05:03:40.453Z,20
2017-07-02T05:06:04.254Z,15
2017-07-02T05:08:19.669Z,15
2017-07-02T05:10:43.550Z,15
2017-07-02T05:15:17.240Z,15
2017-07-02T05:17:41.154Z,15
2017-07-02T05:20:05.038Z,15
2017-07-02T05:22:28.913Z,15
2017-07-02T05:24:52.894Z,15
2017-07-02T05:27:16.732Z,15
2017-07-02T05:31:42.112Z,15
2017-07-02T05:34:06.023Z,20
2017-07-02T05:36:29.925Z,25
2017-07-02T05:38:53.810Z,30
2017-07-02T05:41:17.635Z,35
2017-07-02T05:43:41.524Z,55
2017-07-02T05:46:05.446Z,65
2017-07-02T05:50:14.163Z,40
2017-07-02T05:52:38.154Z,45
2017-07-02T05:55:02.140Z,55
2017-07-02T05:57:26.134Z,60
2017-07-02T05:59:50.123Z,60
2017-07-02T06:02:14.102Z,50
2017-07-02T06:04:38.088Z,50
2017-07-02T06:07:02.106Z,55
2017-07-02T06:09:17.649Z,55
2017-07-02T06:11:41.674Z,50
2017-07-02T06:14:05.690Z,55
2017-07-02T06:16:29.709Z,60
2017-07-02T06:22:49.447Z,55
2017-07-02T06:25:13.492Z,50
2017-07-02T06:27:37.489Z,45
2017-07-02T06:30:01.491Z,45
2017-07-02T06:32:25.500Z,50
2017-07-02T06:34:49.513Z,50
2017-07-02T06:37:13.514Z,55
2017-07-02T06:39:37.542Z,50
2017-07-02T06:42:01.592Z,45
2017-07-02T06:44:25.582Z,30
2017-07-02T06:46:49.514Z,35
2017-07-02T06:49:13.530Z,30
2017-07-02T06:51:29.144Z,30
2017-07-02T06:55:28.896Z,35
2017-07-02T06:57:44.522Z,30
2017-07-02T07:04:12.313Z,25
2017-07-02T07:06:44.976Z,25
2017-07-02T07:09:09.044Z,25
2017-07-02T07:11:16.208Z,25
2017-07-02T07:13:40.313Z,30
2017-07-02T07:16:04.320Z,35
2017-07-02T07:18:28.345Z,40
2017-07-02T07:20:52.387Z,55
2017-07-02T07:23:16.428Z,55
2017-07-02T07:25:40.511Z,50
2017-07-02T07:28:04.588Z,45
2017-07-02T07:30:28.641Z,45
2017-07-02T07:32:52.698Z,40
2017-07-02T07:35:16.775Z,40
2017-07-02T07:37:40.833Z,40
2017-07-02T07:40:04.889Z,40
2017-07-02T07:42:35.713Z,40
2017-07-02T07:44:59.803Z,40
2017-07-02T07:47:23.864Z,40
2017-07-02T07:49:47.886Z,35
2017-07-02T07:52:11.958Z,35
2017-07-02T07:54:36.063Z,35
2017-07-02T07:57:00.133Z,35
2017-07-02T07:59:24.210Z,40
2017-07-02T08:01:48.296Z,40
2017-07-02T08:04:12.600Z,45
2017-07-02T08:06:36.787Z,50
2017-07-02T08:09:00.854Z,55
2017-07-02T08:11:24.934Z,55
2017-07-02T08:15:59.502Z,60
2017-07-02T08:18:23.605Z,60
2017-07-02T08:20:47.710Z,60
2017-07-02T08:23:11.789Z,75
2017-07-02T08:25:35.880Z,95
2017-07-02T08:27:59.994Z,80
2017-07-02T08:30:24.166Z,75
2017-07-02T08:32:48.243Z,75
2017-07-02T08:35:12.334Z,75
2017-07-02T08:37:36.451Z,70
2017-07-02T08:40:01.065Z,65
2017-07-02T08:42:16.808Z,65
2017-07-02T08:44:41.076Z,70
2017-07-02T08:47:05.197Z,75
2017-07-02T08:49:29.781Z,80
2017-07-02T08:51:53.997Z,95
2017-07-02T08:54:18.361Z,175
2017-07-02T08:56:42.547Z,425
2017-07-02T08:59:06.925Z,420
2017-07-02T09:01:33.198Z,400
2017-07-02T09:03:57.747Z,175
2017-07-02T09:08:31.517Z,125
2017-07-02T09:10:56.214Z,110
2017-07-02T09:13:20.988Z,90
2017-07-02T09:15:45.494Z,110
2017-07-02T09:18:10.006Z,170
2017-07-02T09:20:34.661Z,205
2017-07-02T09:22:59.925Z,215
2017-07-02T20:09:35.193Z,0
2017-07-02T20:12:06.381Z,0
2017-07-02T20:14:31.856Z,0
2017-07-02T20:16:56.981Z,0
2017-07-02T20:19:22.334Z,0
2017-07-02T20:21:46.259Z,0
2017-07-02T20:24:10.255Z,0
2017-07-02T20:26:34.186Z,0
2017-07-02T20:28:58.100Z,0
2017-07-02T20:31:21.981Z,0
2017-07-02T20:35:47.833Z,0
2017-07-02T20:38:13.643Z,0
2017-07-02T20:40:36.984Z,0
2017-07-02T20:44:49.581Z,0
2017-07-02T20:47:13.614Z,0
2017-07-02T20:49:37.540Z,0
2017-07-02T20:52:01.416Z,0
2017-07-02T20:54:25.344Z,0
2017-07-02T20:56:49.303Z,0
2017-07-02T20:59:13.201Z,0
2017-07-02T21:01:28.669Z,0
2017-07-02T21:03:52.573Z,0
2017-07-02T21:06:08.032Z,0
2017-07-02T21:08:31.910Z,0
2017-07-02T21:10:55.836Z,0
2017-07-02T21:13:19.710Z,0
2017-07-02T21:15:43.616Z,0
2017-07-02T21:18:07.565Z,0
2017-07-02T21:24:36.186Z,0
2017-07-02T21:27:00.010Z,0
2017-07-02T21:29:23.844Z,0
2017-07-02T21:31:47.747Z,0
2017-07-02T21:34:11.593Z,0
2017-07-02T21:36:35.471Z,0
2017-07-02T21:38:59.335Z,0
2017-07-02T21:41:23.187Z,0
2017-07-02T21:43:47.021Z,0
2017-07-02T21:46:10.871Z,0
2017-07-02T21:48:34.710Z,0
2017-07-02T21:50:58.545Z,0
2017-07-02T21:53:22.408Z,0
2017-07-02T21:55:46.250Z,0
2017-07-02T21:58:10.111Z,0
2017-07-02T22:00:33.997Z,0
2017-07-02T22:02:57.865Z,0
2017-07-02T22:05:21.735Z,0
2017-07-02T22:07:45.565Z,0
2017-07-02T22:10:09.378Z,0
2017-07-02T22:12:33.245Z,0
2017-07-02T22:14:56.993Z,0
2017-07-02T22:17:20.821Z,0
2017-07-02T22:19:44.689Z,0
2017-07-02T22:22:08.517Z,0
2017-07-02T22:24:32.325Z,0
2017-07-02T22:26:56.203Z,0
2017-07-02T22:29:19.983Z,0
2017-07-02T22:31:43.826Z,0
2017-07-02T22:34:07.722Z,0
2017-07-02T22:36:31.563Z,0
2017-07-02T22:38:55.333Z,0
2017-07-02T22:41:19.178Z,0
2017-07-02T22:43:43.049Z,0
2017-07-02T22:46:06.890Z,0
2017-07-02T22:48:30.745Z,0
2017-07-02T22:50:54.553Z,0
2017-07-02T22:55:28.747Z,0
2017-07-02T22:57:52.615Z,0
2017-07-02T23:00:16.440Z,0
2017-07-02T23:02:40.343Z,0
2017-07-02T23:05:04.157Z,0
2017-07-02T23:07:27.984Z,0
2017-07-02T23:09:51.844Z,0
2017-07-02T23:14:25.992Z,0
2017-07-02T23:16:49.869Z,0
2017-07-02T23:19:13.724Z,0
2017-07-02T23:21:37.585Z,0
2017-07-02T23:24:01.546Z,0
2017-07-02T23:26:25.316Z,0
2017-07-02T23:28:49.242Z,0
2017-07-02T23:31:13.171Z,0
2017-07-02T23:33:36.959Z,0
2017-07-02T23:36:00.852Z,0
2017-07-02T23:38:24.685Z,0
2017-07-02T23:40:48.557Z,0
2017-07-02T23:43:12.396Z,0
2017-07-02T23:45:36.220Z,0
2017-07-02T23:48:00.082Z,0
2017-07-02T23:50:39.840Z,0
2017-07-02T23:53:03.741Z,0
2017-07-02T23:55:27.654Z,0
2017-07-02T23:57:51.517Z,0
